createdAt,value
2019-03-21T00:00:14.743Z,1045.4
2019-03-21T00:01:14.730Z,1045.43
2019-03-21T00:02:14.721Z,1045.43
2019-03-21T00:03:14.716Z,1045.4
2019-03-21T00:04:14.711Z,1045.38
2019-03-21T00:05:14.695Z,1045.39
2019-03-21T00:06:14.685Z,1045.41
2019-03-21T00:07:14.680Z,1045.43
2019-03-21T00:08:14.674Z,1045.43
2019-03-21T00:09:14.659Z,1045.46
2019-03-21T00:10:14.650Z,1045.48
2019-03-21T00:11:14.641Z,1045.45
2019-03-21T00:12:14.636Z,1045.52
2019-03-21T00:13:14.626Z,1045.57
2019-03-21T00:14:14.612Z,1045.56
2019-03-21T00:15:14.609Z,1045.56
2019-03-21T00:16:14.597Z,1045.6
2019-03-21T00:17:14.591Z,1045.63
2019-03-21T00:18:14.578Z,1045.63
2019-03-21T00:19:14.573Z,1045.64
2019-03-21T00:20:14.560Z,1045.69
2019-03-21T00:21:14.551Z,1045.68
2019-03-21T00:22:14.540Z,1045.67
2019-03-21T00:23:14.537Z,1045.68
2019-03-21T00:24:14.527Z,1045.63
2019-03-21T00:25:14.515Z,1045.65
2019-03-21T00:26:14.506Z,1045.65
2019-03-21T00:27:14.497Z,1045.65
2019-03-21T00:28:14.491Z,1045.64
2019-03-21T00:29:14.478Z,1045.63
2019-03-21T00:30:14.476Z,1045.63
2019-03-21T00:31:14.460Z,1045.59
2019-03-21T00:32:14.455Z,1045.55
2019-03-21T00:33:14.442Z,1045.57
2019-03-21T00:34:14.438Z,1045.55
2019-03-21T00:35:14.424Z,1045.54
2019-03-21T00:36:14.419Z,1045.55
2019-03-21T00:37:14.411Z,1045.54
2019-03-21T00:38:14.402Z,1045.54
2019-03-21T00:39:14.388Z,1045.53
2019-03-21T00:40:14.384Z,1045.54
2019-03-21T00:41:14.370Z,1045.53
2019-03-21T00:42:14.362Z,1045.54
2019-03-21T00:43:14.352Z,1045.56
2019-03-21T00:44:18.258Z,1045.56
2019-03-21T00:45:14.334Z,1045.59
2019-03-21T00:46:14.329Z,1045.55
2019-03-21T00:47:14.323Z,1045.56
2019-03-21T00:48:14.311Z,1045.53
2019-03-21T00:49:14.298Z,1045.53
2019-03-21T00:50:14.292Z,1045.59
2019-03-21T00:51:14.279Z,1045.61
2019-03-21T00:52:14.274Z,1045.59
2019-03-21T00:53:14.266Z,1045.61
2019-03-21T00:54:14.255Z,1045.59
2019-03-21T00:55:14.243Z,1045.61
2019-03-21T00:56:14.234Z,1045.61
2019-03-21T00:57:14.228Z,1045.64
2019-03-21T00:58:14.221Z,1045.64
2019-03-21T00:59:14.211Z,1045.62
2019-03-21T01:00:14.202Z,1045.62
2019-03-21T01:01:14.192Z,1045.58
2019-03-21T01:02:14.183Z,1045.61
2019-03-21T01:03:14.175Z,1045.58
2019-03-21T01:04:14.166Z,1045.56
2019-03-21T01:05:14.158Z,1045.57
2019-03-21T01:06:14.151Z,1045.58
2019-03-21T01:07:14.133Z,1045.52
2019-03-21T01:08:14.129Z,1045.56
2019-03-21T01:09:14.120Z,1045.54
2019-03-21T01:10:14.111Z,1045.55
2019-03-21T01:11:14.100Z,1045.55
2019-03-21T01:12:14.087Z,1045.55
2019-03-21T01:13:14.086Z,1045.56
2019-03-21T01:14:14.074Z,1045.56
2019-03-21T01:15:14.065Z,1045.57
2019-03-21T01:16:14.054Z,1045.6
2019-03-21T01:17:14.050Z,1045.59
2019-03-21T01:18:14.035Z,1045.58
2019-03-21T01:19:14.031Z,1045.63
2019-03-21T01:20:14.017Z,1045.6
2019-03-21T01:21:14.011Z,1045.57
2019-03-21T01:22:14.002Z,1045.54
2019-03-21T01:23:13.993Z,1045.55
2019-03-21T01:24:13.979Z,1045.54
2019-03-21T01:25:13.971Z,1045.5
2019-03-21T01:26:13.962Z,1045.47
2019-03-21T01:27:13.957Z,1045.46
2019-03-21T01:28:13.951Z,1045.47
2019-03-21T01:29:13.935Z,1045.45
2019-03-21T01:30:13.925Z,1045.43
2019-03-21T01:31:13.921Z,1045.47
2019-03-21T01:32:13.908Z,1045.46
2019-03-21T01:33:13.903Z,1045.45
2019-03-21T01:34:13.890Z,1045.45
2019-03-21T01:35:13.885Z,1045.45
2019-03-21T01:36:13.871Z,1045.44
2019-03-21T01:37:13.869Z,1045.45
2019-03-21T01:38:13.851Z,1045.46
2019-03-21T01:39:13.848Z,1045.48
2019-03-21T01:40:13.835Z,1045.51
2019-03-21T01:41:13.825Z,1045.52
2019-03-21T01:42:13.816Z,1045.51
2019-03-21T01:43:13.812Z,1045.49
2019-03-21T01:44:13.799Z,1045.5
2019-03-21T01:45:13.795Z,1045.51
2019-03-21T01:46:13.784Z,1045.51
2019-03-21T01:47:13.775Z,1045.56
2019-03-21T01:48:13.761Z,1045.5
2019-03-21T01:49:13.757Z,1045.5
2019-03-21T01:50:13.743Z,1045.48
2019-03-21T01:51:13.739Z,1045.48
2019-03-21T01:52:13.728Z,1045.43
2019-03-21T01:53:13.720Z,1045.43
2019-03-21T01:54:13.707Z,1045.43
2019-03-21T01:55:13.703Z,1045.46
2019-03-21T01:56:13.687Z,1045.47
2019-03-21T01:57:13.684Z,1045.46
2019-03-21T01:58:13.680Z,1045.46
2019-03-21T01:59:13.661Z,1045.45
2019-03-21T02:00:13.652Z,1045.43
2019-03-21T02:01:13.647Z,1045.39
2019-03-21T02:02:13.638Z,1045.37
2019-03-21T02:03:13.628Z,1045.38
2019-03-21T02:04:13.615Z,1045.39
2019-03-21T02:05:13.612Z,1045.34
2019-03-21T02:06:13.598Z,1045.38
2019-03-21T02:07:13.594Z,1045.36
2019-03-21T02:08:13.578Z,1045.36
2019-03-21T02:09:13.574Z,1045.35
2019-03-21T02:10:13.560Z,1045.37
2019-03-21T02:11:13.555Z,1045.38
2019-03-21T02:12:13.542Z,1045.37
2019-03-21T02:13:13.533Z,1045.37
2019-03-21T02:14:13.525Z,1045.32
2019-03-21T02:15:13.520Z,1045.32
2019-03-21T02:16:13.509Z,1045.26
2019-03-21T02:17:13.496Z,1045.21
2019-03-21T02:18:13.486Z,1045.23
2019-03-21T02:19:13.477Z,1045.26
2019-03-21T02:20:13.473Z,1045.23
2019-03-21T02:21:13.457Z,1045.2
2019-03-21T02:22:13.449Z,1045.22
2019-03-21T02:23:13.445Z,1045.21
2019-03-21T02:24:13.433Z,1045.2
2019-03-21T02:25:13.425Z,1045.14
2019-03-21T02:26:13.415Z,1045.14
2019-03-21T02:27:13.408Z,1045.19
2019-03-21T02:28:13.395Z,1045.18
2019-03-21T02:29:13.385Z,1045.17
2019-03-21T02:30:13.378Z,1045.2
2019-03-21T02:31:13.377Z,1045.2
2019-03-21T02:32:13.364Z,1045.17
2019-03-21T02:33:13.348Z,1045.19
2019-03-21T02:34:13.341Z,1045.19
2019-03-21T02:35:13.332Z,1045.12
2019-03-21T02:36:13.326Z,1045.14
2019-03-21T02:37:13.316Z,1045.13
2019-03-21T02:38:13.314Z,1045.12
2019-03-21T02:39:13.298Z,1045.09
2019-03-21T02:40:13.289Z,1045.08
2019-03-21T02:41:13.277Z,1045.06
2019-03-21T02:42:13.272Z,1045.09
2019-03-21T02:43:13.257Z,1045.02
2019-03-21T02:44:13.256Z,1045.04
2019-03-21T02:45:13.271Z,1045.05
2019-03-21T02:46:13.238Z,1045.06
2019-03-21T02:47:13.243Z,1045.06
2019-03-21T02:48:13.219Z,1045.02
2019-03-21T02:49:13.207Z,1045.07
2019-03-21T02:50:13.193Z,1045.05
2019-03-21T02:51:13.185Z,1045.01
2019-03-21T02:52:13.189Z,1045.04
2019-03-21T02:53:13.166Z,1044.99
2019-03-21T02:54:13.162Z,1044.98
2019-03-21T02:55:13.148Z,1045.02
2019-03-21T02:56:13.144Z,1045.02
2019-03-21T02:57:13.130Z,1045.03
2019-03-21T02:58:13.124Z,1045.06
2019-03-21T02:59:13.112Z,1045.05
2019-03-21T03:00:13.107Z,1045.07
2019-03-21T03:01:13.097Z,1045.04
2019-03-21T03:02:13.089Z,1045.09
2019-03-21T03:03:13.075Z,1045.12
2019-03-21T03:04:13.070Z,1045.12
2019-03-21T03:05:13.065Z,1045.11
2019-03-21T03:06:13.052Z,1045.11
2019-03-21T03:07:13.043Z,1045.1
2019-03-21T03:08:13.063Z,1045.11
2019-03-21T03:09:13.027Z,1045.08
2019-03-21T03:10:13.010Z,1045.06
2019-03-21T03:11:13.006Z,1045.05
2019-03-21T03:12:12.990Z,1045.06
2019-03-21T03:13:12.991Z,1045.07
2019-03-21T03:14:12.979Z,1045.04
2019-03-21T03:15:22.313Z,1045.05
2019-03-21T03:16:12.960Z,1045.12
2019-03-21T03:17:12.953Z,1045.13
2019-03-21T03:18:12.941Z,1045.11
2019-03-21T03:19:12.929Z,1045.17
2019-03-21T03:20:12.920Z,1045.14
2019-03-21T03:21:12.914Z,1045.14
2019-03-21T03:22:12.904Z,1045.17
2019-03-21T03:23:12.894Z,1045.17
2019-03-21T03:24:12.881Z,1045.17
2019-03-21T03:25:12.877Z,1045.12
2019-03-21T03:26:12.869Z,1045.17
2019-03-21T03:27:12.859Z,1045.11
2019-03-21T03:28:12.853Z,1045.17
2019-03-21T03:29:12.840Z,1045.15
2019-03-21T03:30:12.826Z,1045.17
2019-03-21T03:31:12.821Z,1045.13
2019-03-21T03:32:12.811Z,1045.17
2019-03-21T03:33:12.858Z,1045.16
2019-03-21T03:34:12.790Z,1045.08
2019-03-21T03:35:12.784Z,1045.13
2019-03-21T03:36:12.775Z,1045.14
2019-03-21T03:37:12.763Z,1045.16
2019-03-21T03:38:12.751Z,1045.11
2019-03-21T03:39:12.749Z,1045.14
2019-03-21T03:40:12.747Z,1045.14
2019-03-21T03:41:12.730Z,1045.16
2019-03-21T03:42:12.716Z,1045.15
2019-03-21T03:43:12.711Z,1045.15
2019-03-21T03:44:12.706Z,1045.16
2019-03-21T03:45:12.693Z,1045.13
2019-03-21T03:46:12.682Z,1045.16
2019-03-21T03:47:12.674Z,1045.14
2019-03-21T03:48:12.664Z,1045.18
2019-03-21T03:49:12.651Z,1045.22
2019-03-21T03:50:12.646Z,1045.25
2019-03-21T03:51:12.639Z,1045.24
2019-03-21T03:52:12.629Z,1045.25
2019-03-21T03:53:12.615Z,1045.24
2019-03-21T03:54:12.604Z,1045.3
2019-03-21T03:55:12.597Z,1045.29
2019-03-21T03:56:12.593Z,1045.26
2019-03-21T03:57:12.582Z,1045.28
2019-03-21T03:58:12.576Z,1045.2
2019-03-21T03:59:12.559Z,1045.19
2019-03-21T04:00:12.554Z,1045.21
2019-03-21T04:01:12.541Z,1045.21
2019-03-21T04:02:12.537Z,1045.25
2019-03-21T04:03:12.523Z,1045.29
2019-03-21T04:04:12.518Z,1045.31
2019-03-21T04:05:12.504Z,1045.33
2019-03-21T04:06:12.497Z,1045.35
2019-03-21T04:07:12.489Z,1045.32
2019-03-21T04:08:12.480Z,1045.33
2019-03-21T04:09:12.468Z,1045.33
2019-03-21T04:10:12.460Z,1045.33
2019-03-21T04:11:12.448Z,1045.31
2019-03-21T04:12:12.444Z,1045.36
2019-03-21T04:13:12.432Z,1045.34
2019-03-21T04:14:12.426Z,1045.36
2019-03-21T04:15:12.444Z,1045.36
2019-03-21T04:16:12.407Z,1045.38
2019-03-21T04:17:12.394Z,1045.38
2019-03-21T04:18:12.388Z,1045.35
2019-03-21T04:19:12.373Z,1045.37
2019-03-21T04:20:12.370Z,1045.36
2019-03-21T04:21:12.367Z,1045.39
2019-03-21T04:22:12.349Z,1045.37
2019-03-21T04:23:12.338Z,1045.38
2019-03-21T04:24:12.329Z,1045.37
2019-03-21T04:25:12.324Z,1045.36
2019-03-21T04:26:12.316Z,1045.39
2019-03-21T04:27:12.305Z,1045.39
2019-03-21T04:28:12.292Z,1045.4
2019-03-21T04:29:12.286Z,1045.37
2019-03-21T04:30:12.277Z,1045.38
2019-03-21T04:31:12.264Z,1045.34
2019-03-21T04:32:12.259Z,1045.3
2019-03-21T04:33:12.245Z,1045.31
2019-03-21T04:34:12.241Z,1045.33
2019-03-21T04:35:12.227Z,1045.33
2019-03-21T04:36:12.225Z,1045.35
2019-03-21T04:37:12.216Z,1045.34
2019-03-21T04:38:12.203Z,1045.38
2019-03-21T04:39:12.189Z,1045.42
2019-03-21T04:40:12.179Z,1045.41
2019-03-21T04:41:12.180Z,1045.4
2019-03-21T04:42:12.165Z,1045.41
2019-03-21T04:43:12.155Z,1045.42
2019-03-21T04:44:12.148Z,1045.41
2019-03-21T04:45:12.137Z,1045.39
2019-03-21T04:46:12.124Z,1045.42
2019-03-21T04:47:12.117Z,1045.44
2019-03-21T04:48:12.104Z,1045.42
2019-03-21T04:49:12.099Z,1045.41
2019-03-21T04:50:12.088Z,1045.44
2019-03-21T04:51:12.079Z,1045.41
2019-03-21T04:52:12.069Z,1045.39
2019-03-21T04:53:12.058Z,1045.35
2019-03-21T04:54:12.049Z,1045.38
2019-03-21T04:55:12.044Z,1045.4
2019-03-21T04:56:12.028Z,1045.41
2019-03-21T04:57:12.024Z,1045.39
2019-03-21T04:58:12.019Z,1045.4
2019-03-21T04:59:12.014Z,1045.39
2019-03-21T05:00:11.992Z,1045.44
2019-03-21T05:01:11.988Z,1045.42
2019-03-21T05:02:12.003Z,1045.43
2019-03-21T05:03:11.983Z,1045.44
2019-03-21T05:04:11.956Z,1045.43
2019-03-21T05:05:11.950Z,1045.41
2019-03-21T05:06:11.937Z,1045.38
2019-03-21T05:07:11.931Z,1045.42
2019-03-21T05:08:11.919Z,1045.4
2019-03-21T05:09:11.912Z,1045.39
2019-03-21T05:10:11.903Z,1045.42
2019-03-21T05:11:11.889Z,1045.4
2019-03-21T05:12:11.881Z,1045.39
2019-03-21T05:13:11.875Z,1045.46
2019-03-21T05:14:11.868Z,1045.41
2019-03-21T05:15:11.857Z,1045.44
2019-03-21T05:16:14.852Z,1045.47
2019-03-21T05:17:11.838Z,1045.44
2019-03-21T05:18:11.824Z,1045.44
2019-03-21T05:19:11.822Z,1045.47
2019-03-21T05:20:14.129Z,1045.44
2019-03-21T05:21:11.800Z,1045.45
2019-03-21T05:22:11.792Z,1045.41
2019-03-21T05:23:11.779Z,1045.4
2019-03-21T05:24:11.773Z,1045.4
2019-03-21T05:25:11.767Z,1045.36
2019-03-21T05:26:11.755Z,1045.36
2019-03-21T05:27:11.742Z,1045.35
2019-03-21T05:28:11.732Z,1045.35
2019-03-21T05:29:11.727Z,1045.36
2019-03-21T05:30:11.718Z,1045.38
2019-03-21T05:31:11.708Z,1045.39
2019-03-21T05:32:11.697Z,1045.45
2019-03-21T05:33:11.690Z,1045.43
2019-03-21T05:34:11.676Z,1045.44
2019-03-21T05:35:11.673Z,1045.43
2019-03-21T05:36:11.659Z,1045.44
2019-03-21T05:37:11.653Z,1045.42
2019-03-21T05:38:11.640Z,1045.41
2019-03-21T05:39:11.634Z,1045.4
2019-03-21T05:40:11.621Z,1045.41
2019-03-21T05:41:11.613Z,1045.4
2019-03-21T05:42:11.601Z,1045.4
2019-03-21T05:43:11.599Z,1045.37
2019-03-21T05:44:11.588Z,1045.39
2019-03-21T05:45:11.576Z,1045.41
2019-03-21T05:46:11.566Z,1045.42
2019-03-21T05:47:11.560Z,1045.42
2019-03-21T05:48:11.549Z,1045.4
2019-03-21T05:49:11.543Z,1045.42
2019-03-21T05:50:11.529Z,1045.44
2019-03-21T05:51:11.524Z,1045.42
2019-03-21T05:52:11.511Z,1045.44
2019-03-21T05:53:11.505Z,1045.43
2019-03-21T05:54:11.493Z,1045.44
2019-03-21T05:55:11.489Z,1045.42
2019-03-21T05:56:11.475Z,1045.39
2019-03-21T05:57:11.476Z,1045.39
2019-03-21T05:58:11.456Z,1045.37
2019-03-21T05:59:11.451Z,1045.41
2019-03-21T06:00:11.444Z,1045.38
2019-03-21T06:01:11.428Z,1045.37
2019-03-21T06:02:11.427Z,1045.42
2019-03-21T06:03:11.411Z,1045.46
2019-03-21T06:04:11.406Z,1045.47
2019-03-21T06:05:11.393Z,1045.51
2019-03-21T06:06:11.388Z,1045.49
2019-03-21T06:07:11.376Z,1045.47
2019-03-21T06:08:11.370Z,1045.49
2019-03-21T06:09:11.357Z,1045.52
2019-03-21T06:10:11.353Z,1045.5
2019-03-21T06:11:11.338Z,1045.48
2019-03-21T06:12:11.334Z,1045.48
2019-03-21T06:13:11.321Z,1045.49
2019-03-21T06:14:11.312Z,1045.44
2019-03-21T06:15:11.306Z,1045.44
2019-03-21T06:16:11.299Z,1045.42
2019-03-21T06:17:11.285Z,1045.38
2019-03-21T06:18:11.276Z,1045.4
2019-03-21T06:19:11.266Z,1045.42
2019-03-21T06:20:11.262Z,1045.39
2019-03-21T06:21:11.247Z,1045.37
2019-03-21T06:22:11.243Z,1045.35
2019-03-21T06:23:11.229Z,1045.41
2019-03-21T06:24:11.225Z,1045.46
2019-03-21T06:25:11.214Z,1045.44
2019-03-21T06:26:11.209Z,1045.45
2019-03-21T06:27:14.592Z,1045.43
2019-03-21T06:28:11.190Z,1045.39
2019-03-21T06:29:11.182Z,1045.38
2019-03-21T06:30:11.172Z,1045.38
2019-03-21T06:31:11.159Z,1045.4
2019-03-21T06:32:12.991Z,1045.37
2019-03-21T06:33:11.145Z,1045.39
2019-03-21T06:34:11.136Z,1045.4
2019-03-21T06:35:11.132Z,1045.4
2019-03-21T06:36:11.117Z,1045.42
2019-03-21T06:37:11.110Z,1045.42
2019-03-21T06:38:11.102Z,1045.41
2019-03-21T06:39:11.089Z,1045.43
2019-03-21T06:40:11.087Z,1045.43
2019-03-21T06:41:11.071Z,1045.47
2019-03-21T06:42:11.067Z,1045.49
2019-03-21T06:43:11.055Z,1045.46
2019-03-21T06:44:11.049Z,1045.49
2019-03-21T06:45:11.040Z,1045.48
2019-03-21T06:46:11.032Z,1045.49
2019-03-21T06:47:11.022Z,1045.48
2019-03-21T06:48:11.014Z,1045.47
2019-03-21T06:49:11.009Z,1045.43
2019-03-21T06:50:10.997Z,1045.44
2019-03-21T06:51:10.985Z,1045.44
2019-03-21T06:52:10.980Z,1045.44
2019-03-21T06:53:10.967Z,1045.47
2019-03-21T06:54:10.963Z,1045.43
2019-03-21T06:55:10.950Z,1045.4
2019-03-21T06:56:10.945Z,1045.39
2019-03-21T06:57:10.933Z,1045.35
2019-03-21T06:58:10.931Z,1045.32
2019-03-21T06:59:10.915Z,1045.29
2019-03-21T07:00:10.911Z,1045.28
2019-03-21T07:01:10.903Z,1045.3
2019-03-21T07:02:10.895Z,1045.3
2019-03-21T07:03:10.881Z,1045.31
2019-03-21T07:04:10.877Z,1045.3
2019-03-21T07:05:10.870Z,1045.24
2019-03-21T07:06:10.855Z,1045.29
2019-03-21T07:07:10.847Z,1045.28
2019-03-21T07:08:10.843Z,1045.31
2019-03-21T07:09:10.831Z,1045.33
2019-03-21T07:10:10.826Z,1045.33
2019-03-21T07:11:10.814Z,1045.29
2019-03-21T07:12:10.812Z,1045.34
2019-03-21T07:13:10.798Z,1045.38
2019-03-21T07:14:10.793Z,1045.38
2019-03-21T07:15:10.783Z,1045.41
2019-03-21T07:16:10.777Z,1045.34
2019-03-21T07:17:10.785Z,1045.41
2019-03-21T07:18:10.760Z,1045.39
2019-03-21T07:19:10.747Z,1045.39
2019-03-21T07:20:10.742Z,1045.41
2019-03-21T07:21:10.735Z,1045.38
2019-03-21T07:22:12.354Z,1045.35
2019-03-21T07:23:10.719Z,1045.33
2019-03-21T07:24:10.707Z,1045.29
2019-03-21T07:25:10.702Z,1045.33
2019-03-21T07:26:10.719Z,1045.31
2019-03-21T07:27:10.686Z,1045.34
2019-03-21T07:28:10.673Z,1045.25
2019-03-21T07:29:10.669Z,1045.24
2019-03-21T07:30:10.662Z,1045.25
2019-03-21T07:31:11.416Z,1045.23
2019-03-21T07:32:10.645Z,1045.21
2019-03-21T07:33:10.637Z,1045.15
2019-03-21T07:34:10.629Z,1045.16
2019-03-21T07:35:10.617Z,1045.15
2019-03-21T07:36:10.609Z,1045.11
2019-03-21T07:37:10.609Z,1045.07
2019-03-21T07:38:10.598Z,1045.11
2019-03-21T07:39:10.594Z,1045.05
2019-03-21T07:40:10.578Z,1045.09
2019-03-21T07:41:10.575Z,1045.06
2019-03-21T07:42:10.563Z,1045.05
2019-03-21T07:43:10.561Z,1045.11
2019-03-21T07:44:10.547Z,1045.09
2019-03-21T07:45:10.543Z,1045.09
2019-03-21T07:46:10.531Z,1045.11
2019-03-21T07:47:12.982Z,1045.12
2019-03-21T07:48:10.516Z,1045.14
2019-03-21T07:49:10.509Z,1045.1
2019-03-21T07:50:10.501Z,1045.11
2019-03-21T07:51:10.498Z,1045.09
2019-03-21T07:52:10.493Z,1045.11
2019-03-21T07:53:10.478Z,1045.11
2019-03-21T07:54:10.470Z,1045.12
2019-03-21T07:55:10.466Z,1045.08
2019-03-21T07:56:10.455Z,1045.05
2019-03-21T07:57:10.451Z,1045.04
2019-03-21T07:58:10.440Z,1045.01
2019-03-21T07:59:10.441Z,1045
2019-03-21T08:00:10.426Z,1045.02
2019-03-21T08:01:10.421Z,1045
2019-03-21T08:02:10.412Z,1044.98
2019-03-21T08:03:10.407Z,1044.97
2019-03-21T08:04:10.397Z,1044.98
2019-03-21T08:05:10.387Z,1044.97
2019-03-21T08:06:10.387Z,1044.99
2019-03-21T08:07:10.378Z,1045.02
2019-03-21T08:08:10.369Z,1045
2019-03-21T08:09:10.358Z,1045.02
2019-03-21T08:10:10.350Z,1045
2019-03-21T08:11:10.343Z,1045.03
2019-03-21T08:12:10.339Z,1045.02
2019-03-21T08:13:10.327Z,1045
2019-03-21T08:14:10.335Z,1045
2019-03-21T08:15:10.314Z,1044.94
2019-03-21T08:16:10.315Z,1044.93
2019-03-21T08:17:10.301Z,1044.91
2019-03-21T08:18:10.296Z,1044.87
2019-03-21T08:19:10.284Z,1044.81
2019-03-21T08:20:10.281Z,1044.81
2019-03-21T08:21:10.270Z,1044.76
2019-03-21T08:22:10.311Z,1044.71
2019-03-21T08:23:10.259Z,1044.7
2019-03-21T08:24:10.251Z,1044.73
2019-03-21T08:25:10.241Z,1044.67
2019-03-21T08:26:10.234Z,1044.65
2019-03-21T08:27:10.229Z,1044.65
2019-03-21T08:28:10.224Z,1044.64
2019-03-21T08:29:10.213Z,1044.65
2019-03-21T08:30:10.209Z,1044.64
2019-03-21T08:31:10.198Z,1044.62
2019-03-21T08:32:10.196Z,1044.6
2019-03-21T08:33:10.185Z,1044.57
2019-03-21T08:34:10.177Z,1044.58
2019-03-21T08:35:10.175Z,1044.61
2019-03-21T08:36:10.164Z,1044.6
2019-03-21T08:37:10.157Z,1044.57
2019-03-21T08:38:10.149Z,1044.6
2019-03-21T08:39:10.148Z,1044.63
2019-03-21T08:40:10.141Z,1044.64
2019-03-21T08:41:10.130Z,1044.62
2019-03-21T08:42:10.122Z,1044.68
2019-03-21T08:43:10.117Z,1044.67
2019-03-21T08:44:10.113Z,1044.65
2019-03-21T08:45:10.102Z,1044.65
2019-03-21T08:46:10.095Z,1044.66
2019-03-21T08:47:10.095Z,1044.63
2019-03-21T08:48:10.082Z,1044.61
2019-03-21T08:49:10.079Z,1044.57
2019-03-21T08:50:10.069Z,1044.5
2019-03-21T08:51:10.070Z,1044.59
2019-03-21T08:52:10.055Z,1044.62
2019-03-21T08:53:10.050Z,1044.64
2019-03-21T08:54:10.042Z,1044.63
2019-03-21T08:55:10.040Z,1044.59
2019-03-21T08:56:10.034Z,1044.53
2019-03-21T08:57:10.022Z,1044.49
2019-03-21T08:58:10.017Z,1044.48
2019-03-21T08:59:10.010Z,1044.42
2019-03-21T09:00:10.006Z,1044.42
2019-03-21T09:01:09.996Z,1044.41
2019-03-21T09:02:09.993Z,1044.4
2019-03-21T09:03:09.982Z,1044.36
2019-03-21T09:04:09.980Z,1044.34
2019-03-21T09:05:09.969Z,1044.3
2019-03-21T09:06:09.968Z,1044.26
2019-03-21T09:07:09.956Z,1044.25
2019-03-21T09:08:09.955Z,1044.27
2019-03-21T09:09:09.948Z,1044.25
2019-03-21T09:10:09.943Z,1044.25
2019-03-21T09:11:09.934Z,1044.24
2019-03-21T09:12:09.930Z,1044.29
2019-03-21T09:13:09.920Z,1044.31
2019-03-21T09:14:09.912Z,1044.27
2019-03-21T09:15:09.908Z,1044.28
2019-03-21T09:16:10.955Z,1044.26
2019-03-21T09:17:09.894Z,1044.29
2019-03-21T09:18:09.892Z,1044.32
2019-03-21T09:19:09.882Z,1044.35
2019-03-21T09:20:09.879Z,1044.37
2019-03-21T09:21:19.030Z,1044.35
2019-03-21T09:22:09.867Z,1044.36
2019-03-21T09:23:09.858Z,1044.37
2019-03-21T09:24:09.856Z,1044.36
2019-03-21T09:25:09.849Z,1044.35
2019-03-21T09:26:09.843Z,1044.28
2019-03-21T09:27:09.832Z,1044.32
2019-03-21T09:28:09.827Z,1044.25
2019-03-21T09:29:09.824Z,1044.26
2019-03-21T09:30:09.818Z,1044.25
2019-03-21T09:31:09.812Z,1044.26
2019-03-21T09:32:09.807Z,1044.21
2019-03-21T09:33:09.800Z,1044.21
2019-03-21T09:34:09.792Z,1044.26
2019-03-21T09:35:12.345Z,1044.26
2019-03-21T09:36:09.778Z,1044.26
2019-03-21T09:37:09.776Z,1044.21
2019-03-21T09:38:09.774Z,1044.18
2019-03-21T09:39:09.761Z,1044.17
2019-03-21T09:40:09.758Z,1044.11
2019-03-21T09:41:09.755Z,1044.05
2019-03-21T09:42:09.747Z,1044.02
2019-03-21T09:43:09.736Z,1043.97
2019-03-21T09:44:09.730Z,1043.9
2019-03-21T09:45:09.728Z,1043.86
2019-03-21T09:46:09.723Z,1043.88
2019-03-21T09:47:09.717Z,1043.83
2019-03-21T09:48:09.707Z,1043.77
2019-03-21T09:49:09.706Z,1043.64
2019-03-21T09:50:09.697Z,1043.62
2019-03-21T09:51:09.701Z,1043.56
2019-03-21T09:52:09.684Z,1043.49
2019-03-21T09:53:09.683Z,1043.47
2019-03-21T09:54:10.091Z,1043.48
2019-03-21T09:55:09.672Z,1043.47
2019-03-21T09:56:09.663Z,1043.54
2019-03-21T09:57:09.657Z,1043.58
2019-03-21T09:58:09.652Z,1043.61
2019-03-21T09:59:09.650Z,1043.67
2019-03-21T10:00:09.645Z,1043.72
2019-03-21T10:01:09.636Z,1043.75
2019-03-21T10:02:09.630Z,1043.78
2019-03-21T10:03:09.632Z,1043.81
2019-03-21T10:04:09.619Z,1043.81
2019-03-21T10:05:09.617Z,1043.84
2019-03-21T10:06:09.607Z,1043.96
2019-03-21T10:07:09.607Z,1043.97
2019-03-21T10:08:09.597Z,1044.01
2019-03-21T10:09:09.595Z,1044.02
2019-03-21T10:10:09.594Z,1044.12
2019-03-21T10:11:09.584Z,1044.16
2019-03-21T10:12:09.578Z,1044.15
2019-03-21T10:13:09.568Z,1044.13
2019-03-21T10:14:09.563Z,1044.13
2019-03-21T10:15:09.562Z,1044.12
2019-03-21T10:16:09.551Z,1044.07
2019-03-21T10:17:09.550Z,1044.05
2019-03-21T10:18:09.547Z,1044.02
2019-03-21T10:19:09.539Z,1043.96
2019-03-21T10:20:09.529Z,1043.92
2019-03-21T10:21:09.529Z,1043.9
2019-03-21T10:22:09.520Z,1043.93
2019-03-21T10:23:09.517Z,1043.95
2019-03-21T10:24:09.508Z,1043.95
2019-03-21T10:25:09.504Z,1044.01
2019-03-21T10:26:09.496Z,1044.01
2019-03-21T10:27:09.492Z,1044.02
2019-03-21T10:28:09.483Z,1044.05
2019-03-21T10:29:09.483Z,1044.04
2019-03-21T10:30:09.476Z,1044.08
2019-03-21T10:31:09.465Z,1044.09
2019-03-21T10:32:14.074Z,1044.17
2019-03-21T10:33:09.460Z,1044.19
2019-03-21T10:34:09.454Z,1044.21
2019-03-21T10:35:09.449Z,1044.26
2019-03-21T10:36:09.437Z,1044.18
2019-03-21T10:37:09.438Z,1044.13
2019-03-21T10:38:09.429Z,1044.1
2019-03-21T10:39:09.425Z,1044.08
2019-03-21T10:40:09.419Z,1044.07
2019-03-21T10:41:09.413Z,1044.1
2019-03-21T10:42:09.406Z,1044.11
2019-03-21T10:43:10.486Z,1044.13
2019-03-21T10:44:09.392Z,1044.14
2019-03-21T10:45:09.388Z,1044.16
2019-03-21T10:46:09.381Z,1044.13
2019-03-21T10:47:09.380Z,1044.18
2019-03-21T10:48:09.374Z,1044.2
2019-03-21T10:49:09.364Z,1044.24
2019-03-21T10:50:09.366Z,1044.27
2019-03-21T10:51:09.351Z,1044.31
2019-03-21T10:52:09.351Z,1044.27
2019-03-21T10:53:09.340Z,1044.31
2019-03-21T10:54:09.334Z,1044.28
2019-03-21T10:55:09.332Z,1044.3
2019-03-21T10:56:09.322Z,1044.28
2019-03-21T10:57:09.320Z,1044.28
2019-03-21T10:58:09.310Z,1044.28
2019-03-21T10:59:09.308Z,1044.26
2019-03-21T11:00:09.298Z,1044.19
2019-03-21T11:01:09.324Z,1044.14
2019-03-21T11:02:09.287Z,1044.1
2019-03-21T11:03:09.287Z,1044.05
2019-03-21T11:04:09.279Z,1044.03
2019-03-21T11:05:09.268Z,1043.99
2019-03-21T11:06:09.263Z,1043.93
2019-03-21T11:07:09.256Z,1043.94
2019-03-21T11:08:09.254Z,1043.92
2019-03-21T11:09:09.244Z,1043.89
2019-03-21T11:10:09.243Z,1043.89
2019-03-21T11:11:09.232Z,1043.88
2019-03-21T11:12:09.232Z,1043.84
2019-03-21T11:13:09.221Z,1043.84
2019-03-21T11:14:09.223Z,1043.83
2019-03-21T11:15:09.210Z,1043.8
2019-03-21T11:16:09.210Z,1043.75
2019-03-21T11:17:09.205Z,1043.73
2019-03-21T11:18:09.194Z,1043.67
2019-03-21T11:19:09.186Z,1043.59
2019-03-21T11:20:09.183Z,1043.56
2019-03-21T11:21:09.174Z,1043.51
2019-03-21T11:22:09.168Z,1043.5
2019-03-21T11:23:09.167Z,1043.49
2019-03-21T11:24:09.161Z,1043.4
2019-03-21T11:25:09.154Z,1043.42
2019-03-21T11:26:09.149Z,1043.39
2019-03-21T11:27:09.140Z,1043.39
2019-03-21T11:28:09.138Z,1043.36
2019-03-21T11:29:09.128Z,1043.35
2019-03-21T11:30:15.811Z,1043.36
2019-03-21T11:31:09.118Z,1043.38
2019-03-21T11:32:09.119Z,1043.37
2019-03-21T11:33:09.111Z,1043.37
2019-03-21T11:34:09.105Z,1043.34
2019-03-21T11:35:09.096Z,1043.32
2019-03-21T11:36:09.091Z,1043.31
2019-03-21T11:37:09.089Z,1043.3
2019-03-21T11:38:09.084Z,1043.29
2019-03-21T11:39:09.079Z,1043.27
2019-03-21T11:40:09.068Z,1043.3
2019-03-21T11:41:09.078Z,1043.29
2019-03-21T11:42:09.066Z,1043.32
2019-03-21T11:43:09.063Z,1043.32
2019-03-21T11:44:09.048Z,1043.35
2019-03-21T11:45:09.050Z,1043.39
2019-03-21T11:46:09.043Z,1043.38
2019-03-21T11:47:09.032Z,1043.39
2019-03-21T11:48:09.030Z,1043.42
2019-03-21T11:49:09.025Z,1043.42
2019-03-21T11:50:09.019Z,1043.46
2019-03-21T11:51:09.009Z,1043.44
2019-03-21T11:52:17.676Z,1043.46
2019-03-21T11:53:09.003Z,1043.47
2019-03-21T11:54:08.998Z,1043.42
2019-03-21T11:55:08.993Z,1043.48
2019-03-21T11:56:08.983Z,1043.49
2019-03-21T11:57:08.981Z,1043.45
2019-03-21T11:58:08.976Z,1043.52
2019-03-21T11:59:08.966Z,1043.55
2019-03-21T12:00:08.965Z,1043.58
2019-03-21T12:01:08.956Z,1043.62
2019-03-21T12:02:08.955Z,1043.61
2019-03-21T12:03:08.947Z,1043.6
2019-03-21T12:04:08.944Z,1043.59
2019-03-21T12:05:08.939Z,1043.6
2019-03-21T12:06:08.932Z,1043.59
2019-03-21T12:07:08.922Z,1043.57
2019-03-21T12:08:08.917Z,1043.57